Time;durP1;ratioP1;P1;durP2;ratioP2;P2;SDS_P1;SDS_P2;PMS_P1;PMS_P2;Temp;Humidity;BMP_temperature;BMP_pressure;BME280_temperature;BME280_humidity;BME280_pressure;Samples;Min_cycle;Max_cycle;Signal;HPM_P1;HPM_P2
2021/08/22 00:01:58;;;;;;;13.83;10.93;;;;;;;16.39;74.91;100825.86;1755400;81;21107;-77
2021/08/22 00:04:24;;;;;;;16.65;11.18;;;;;;;16.35;74.84;100828.11;1755678;81;21014;-77
2021/08/22 00:06:50;;;;;;;13.22;10.75;;;;;;;16.27;74.79;100825.56;1755667;81;21041;-77
2021/08/22 00:09:16;;;;;;;15.48;10.58;;;;;;;16.22;74.74;100827.99;1755749;81;21019;-77
2021/08/22 00:11:42;;;;;;;12.47;10.30;;;;;;;16.18;74.69;100825.91;1755764;81;20993;-77
2021/08/22 00:14:08;;;;;;;12.40;10.00;;;;;;;16.12;74.67;100826.16;1755821;81;21059;-77
2021/08/22 00:16:34;;;;;;;13.50;10.18;;;;;;;16.05;74.65;100827.13;1755653;81;21050;-77
2021/08/22 00:19:00;;;;;;;11.25;9.43;;;;;;;15.98;74.64;100833.81;1755622;81;21002;-77
2021/08/22 00:21:26;;;;;;;12.47;9.90;;;;;;;15.93;74.63;100836.27;1755733;81;21025;-77
2021/08/22 00:23:52;;;;;;;12.33;10.25;;;;;;;15.85;74.65;100822.44;1755689;81;21002;-77
2021/08/22 00:26:18;;;;;;;12.35;10.15;;;;;;;15.81;74.66;100827.05;1755510;81;21221;-77
2021/08/22 00:28:44;;;;;;;11.43;10.23;;;;;;;15.77;74.67;100821.72;1755527;80;21487;-77
2021/08/22 00:31:10;;;;;;;12.53;10.45;;;;;;;15.71;74.67;100821.16;1755905;81;21712;-77
2021/08/22 00:33:36;;;;;;;15.30;12.03;;;;;;;15.63;74.70;100818.59;1755567;81;20983;-77
2021/08/22 00:36:02;;;;;;;14.63;11.05;;;;;;;15.57;74.76;100816.68;1755866;81;21014;-77
2021/08/22 00:38:31;;;;;;;15.10;11.33;;;;;;;15.50;74.78;100822.00;1755656;81;21162;-77
2021/08/22 00:40:56;;;;;;;14.98;11.12;;;;;;;15.45;74.82;100816.31;1755715;81;20990;-77
2021/08/22 00:43:22;;;;;;;13.22;11.33;;;;;;;15.39;74.88;100820.61;1755895;81;20938;-77
2021/08/22 00:45:48;;;;;;;12.90;11.03;;;;;;;15.34;74.95;100820.34;1755647;81;21014;-77
2021/08/22 00:48:14;;;;;;;13.58;10.75;;;;;;;15.31;75.00;100812.66;1755871;81;20853;-77
2021/08/22 00:50:40;;;;;;;15.68;11.73;;;;;;;15.24;75.06;100815.79;1755826;81;21074;-77
2021/08/22 00:53:07;;;;;;;13.35;11.12;;;;;;;15.18;75.14;100817.90;1755913;81;20997;-77
2021/08/22 00:55:34;;;;;;;14.95;11.93;;;;;;;15.13;75.23;100820.31;1755789;81;21478;-77
2021/08/22 00:58:00;;;;;;;12.98;11.05;;;;;;;15.08;75.31;100813.34;1755828;81;21026;-77
2021/08/22 01:00:26;;;;;;;15.00;11.53;;;;;;;15.04;75.37;100820.11;1755700;81;21006;-77
2021/08/22 01:03:18;;;;;;;15.05;12.25;;;;;;;15.00;75.45;100820.16;1755558;81;21675;-77
2021/08/22 01:05:52;;;;;;;15.40;11.95;;;;;;;14.96;75.50;100808.12;1755852;81;21466;-77
2021/08/22 01:08:23;;;;;;;15.93;13.20;;;;;;;14.91;75.58;100815.92;1755427;81;21498;-77
2021/08/22 01:10:56;;;;;;;17.75;13.38;;;;;;;14.86;75.66;100815.14;1755469;81;21058;-77
2021/08/22 01:13:23;;;;;;;16.42;13.93;;;;;;;14.78;75.69;100799.63;1755827;81;21018;-78
2021/08/22 01:15:56;;;;;;;19.23;14.87;;;;;;;14.77;75.68;100816.78;1755586;81;21782;-77
2021/08/22 01:18:24;;;;;;;19.75;15.68;;;;;;;14.77;75.68;100816.78;1757118;81;20955;-77
2021/08/22 01:21:13;;;;;;;26.35;18.05;;;;;;;14.60;76.04;100799.20;1732034;81;21103;-77
2021/08/22 01:23:48;;;;;;;18.52;14.40;;;;;;;14.60;76.04;100799.20;1755895;81;21054;-77
2021/08/22 01:26:17;;;;;;;18.40;14.28;;;;;;;14.64;76.06;100818.77;1755832;81;20978;-77
2021/08/22 01:28:44;;;;;;;19.02;14.90;;;;;;;14.50;76.35;100812.38;1755339;80;21757;-77
2021/08/22 01:31:14;;;;;;;19.15;15.10;;;;;;;14.50;76.35;100812.38;1755793;81;21015;-77
2021/08/22 01:33:41;;;;;;;24.55;17.23;;;;;;;14.47;76.28;100811.41;1755582;81;21010;-77
2021/08/22 01:36:07;;;;;;;25.82;19.00;;;;;;;14.42;76.34;100810.31;1755825;81;21003;-77
2021/08/22 01:38:33;;;;;;;24.82;19.87;;;;;;;14.42;76.34;100810.31;1755825;81;21058;-77
2021/08/22 01:40:59;;;;;;;26.27;17.67;;;;;;;14.40;76.50;100805.12;1755753;81;21179;-77
2021/08/22 01:43:25;;;;;;;21.97;17.45;;;;;;;14.38;76.56;100805.83;1755758;81;21476;-77
2021/08/22 01:45:55;;;;;;;18.77;15.88;;;;;;;14.38;76.64;100805.83;1755823;81;21508;-77
2021/08/22 01:48:21;;;;;;;23.23;18.10;;;;;;;14.35;76.79;100794.13;1755985;81;21484;-77
2021/08/22 01:50:47;;;;;;;23.80;18.10;;;;;;;14.35;76.79;100794.13;1755588;81;21905;-77
2021/08/22 01:53:13;;;;;;;25.52;18.30;;;;;;;14.35;76.84;100798.15;1755759;81;21093;-77
2021/08/22 01:55:39;;;;;;;21.65;16.23;;;;;;;14.35;76.90;100802.17;1755518;81;21046;-77
2021/08/22 01:58:06;;;;;;;23.00;16.85;;;;;;;14.32;76.97;100798.45;1732223;81;20985;-77
2021/08/22 02:00:32;;;;;;;22.50;17.15;;;;;;;14.31;77.04;100799.50;1755615;81;21018;-77
2021/08/22 02:03:15;;;;;;;21.90;16.87;;;;;;;14.30;77.07;100792.45;1755797;81;21490;-77
2021/08/22 02:05:41;;;;;;;23.25;17.85;;;;;;;14.27;77.14;100792.83;1760171;81;21060;-77
2021/08/22 02:08:15;;;;;;;23.30;18.30;;;;;;;14.21;77.25;100788.72;1760578;81;20899;-77
2021/08/22 02:10:53;;;;;;;23.40;16.95;;;;;;;14.20;77.29;100781.17;1733783;82;21023;-77
2021/08/22 02:13:19;;;;;;;25.48;19.45;;;;;;;14.15;77.39;100776.84;1733642;82;21058;-77
2021/08/22 02:15:45;;;;;;;23.50;18.27;;;;;;;14.13;77.46;100782.92;1733832;82;21042;-77
2021/08/22 02:18:15;;;;;;;21.48;17.92;;;;;;;14.11;77.53;100775.55;1760852;81;21075;-77
2021/08/22 02:20:41;;;;;;;;;;;;;;;14.09;77.59;100767.37;1762367;81;21017;-77
2021/08/22 02:23:07;;;;;;;21.82;17.67;;;;;;;14.05;77.66;100765.56;1734946;81;20326;-77
2021/08/22 02:25:33;;;;;;;23.20;17.65;;;;;;;14.02;77.73;100763.25;1735038;81;21072;-77
2021/08/22 02:27:59;;;;;;;23.52;19.07;;;;;;;14.00;77.77;100763.95;1760308;80;21050;-77
2021/08/22 02:30:28;;;;;;;23.62;18.17;;;;;;;13.97;77.85;100762.95;1760273;81;21193;-77
2021/08/22 02:32:54;;;;;;;22.95;19.25;;;;;;;13.92;77.87;100760.00;1757431;81;21061;-77
2021/08/22 02:35:20;;;;;;;25.08;18.67;;;;;;;13.88;77.93;100758.70;1760627;80;21026;-77
2021/08/22 02:37:46;;;;;;;25.15;19.00;;;;;;;13.80;77.99;100756.09;1760447;81;21443;-77
2021/08/22 02:40:13;;;;;;;27.27;19.10;;;;;;;13.76;78.06;100753.44;1760860;81;21450;-77
2021/08/22 02:42:39;;;;;;;23.87;19.20;;;;;;;13.75;78.11;100750.45;1760481;81;21223;-77
2021/08/22 02:45:07;;;;;;;20.80;17.48;;;;;;;13.76;78.17;100750.76;1760406;81;21038;-77
2021/08/22 02:47:33;;;;;;;28.50;18.87;;;;;;;13.72;78.20;100748.95;1760669;81;21026;-77
2021/08/22 02:49:59;;;;;;;26.42;17.73;;;;;;;13.68;78.28;100742.81;1760473;81;21026;-77
2021/08/22 02:52:25;;;;;;;24.65;17.12;;;;;;;13.64;78.33;100745.02;1760895;81;21005;-77
2021/08/22 02:54:51;;;;;;;22.05;18.35;;;;;;;13.62;78.38;100743.52;1760723;81;21625;-77
2021/08/22 02:57:18;;;;;;;23.90;18.70;;;;;;;13.58;78.42;100734.20;1760650;81;21624;-77
2021/08/22 02:59:44;;;;;;;21.70;18.70;;;;;;;13.57;78.47;100732.52;1759837;81;21022;-77
2021/08/22 03:02:10;;;;;;;24.12;18.02;;;;;;;13.56;78.51;100731.69;1756911;81;21108;-77
2021/08/22 03:04:36;;;;;;;20.25;17.75;;;;;;;13.57;78.55;100725.83;1757106;81;20999;-77
2021/08/22 03:07:02;;;;;;;21.62;18.35;;;;;;;13.53;78.60;100728.53;1757094;81;21621;-77
2021/08/22 03:09:28;;;;;;;24.40;17.98;;;;;;;13.53;78.65;100735.23;1725410;83;21035;-77
2021/08/22 03:11:54;;;;;;;21.60;18.17;;;;;;;13.54;78.70;100730.20;1757287;81;21031;-77
2021/08/22 03:14:20;;;;;;;18.77;16.15;;;;;;;13.54;78.74;100726.19;1757339;81;20883;-77
2021/08/22 03:16:46;;;;;;;20.48;16.80;;;;;;;13.53;78.79;100732.55;1757064;81;21452;-77
2021/08/22 03:19:13;;;;;;;19.67;17.27;;;;;;;13.53;78.84;100729.88;1757157;81;21534;-77
2021/08/22 03:21:42;;;;;;;20.85;17.42;;;;;;;13.51;78.87;100738.92;1725473;83;21495;-77
2021/08/22 03:24:07;;;;;;;25.90;17.95;;;;;;;13.49;78.94;100735.59;1756940;81;21026;-77
2021/08/22 03:26:33;;;;;;;21.97;17.50;;;;;;;13.49;78.97;100734.26;1725214;83;20923;-77
2021/08/22 03:28:59;;;;;;;21.77;17.37;;;;;;;13.47;79.02;100733.59;1756931;80;21038;-77
2021/08/22 03:31:25;;;;;;;21.77;17.92;;;;;;;13.45;79.08;100735.63;1757184;81;21149;-77
2021/08/22 03:33:51;;;;;;;19.30;16.85;;;;;;;13.44;79.14;100737.97;1756923;81;21060;-77
2021/08/22 03:36:18;;;;;;;20.00;16.77;;;;;;;13.43;79.17;100736.83;1757355;81;20931;-77
2021/08/22 03:38:45;;;;;;;22.40;17.90;;;;;;;13.44;79.20;100742.52;1756953;81;20990;-77
2021/08/22 03:41:11;;;;;;;19.23;16.02;;;;;;;13.40;79.26;100739.38;1725402;83;21063;-77
2021/08/22 03:43:37;;;;;;;19.70;16.45;;;;;;;13.38;79.29;100740.04;1756904;81;21468;-77
2021/08/22 03:46:03;;;;;;;17.65;15.58;;;;;;;13.38;79.33;100740.04;1725396;83;21496;-77
2021/08/22 03:48:29;;;;;;;22.73;18.12;;;;;;;13.36;79.35;100736.72;1757036;81;21008;-77
2021/08/22 03:50:55;;;;;;;22.05;17.75;;;;;;;13.38;79.39;100740.04;1725543;83;21003;-77
2021/08/22 03:53:21;;;;;;;19.15;15.88;;;;;;;13.38;79.40;100744.56;1757313;81;20900;-77
2021/08/22 03:55:47;;;;;;;19.90;16.17;;;;;;;13.37;79.44;100745.59;1756838;81;21117;-77
2021/08/22 03:58:13;;;;;;;22.70;17.65;;;;;;;13.35;79.45;100744.42;1757132;81;21077;-77
2021/08/22 04:00:39;;;;;;;20.00;17.05;;;;;;;13.35;79.48;100742.24;1758829;81;21030;-77
2021/08/22 04:03:06;;;;;;;22.85;17.02;;;;;;;13.34;79.51;100740.57;1765890;81;21495;-77
2021/08/22 04:05:33;;;;;;;20.88;16.40;;;;;;;13.36;79.55;100746.09;1765697;81;21529;-77
2021/08/22 04:08:00;;;;;;;20.62;17.10;;;;;;;13.37;79.54;100742.91;1765914;81;21312;-77
2021/08/22 04:10:29;;;;;;;22.15;17.50;;;;;;;13.36;79.61;100743.42;1765792;81;20951;-77
2021/08/22 04:12:56;;;;;;;21.97;17.30;;;;;;;13.36;79.61;100739.90;1765711;81;20986;-77
2021/08/22 04:15:22;;;;;;;22.87;17.67;;;;;;;13.36;79.64;100734.05;1765886;80;21054;-77
2021/08/22 04:17:48;;;;;;;25.75;17.07;;;;;;;13.37;79.67;100734.34;1733838;82;21066;-77
2021/08/22 04:20:14;;;;;;;20.17;17.10;;;;;;;13.40;79.68;100734.52;1765922;81;21546;-77
2021/08/22 04:22:41;;;;;;;22.73;17.85;;;;;;;13.43;79.71;100736.83;1733805;82;21507;-77
2021/08/22 04:25:09;;;;;;;21.75;17.37;;;;;;;13.49;79.73;100730.24;1765570;81;21557;-77
2021/08/22 04:27:35;;;;;;;23.65;19.55;;;;;;;13.57;79.77;100735.20;1733811;82;21503;-77
2021/08/22 04:30:01;;;;;;;24.75;18.05;;;;;;;13.87;79.93;100726.19;1765478;81;21490;-77
2021/08/22 04:32:27;;;;;;;25.10;19.57;;;;;;;14.33;80.02;100725.01;1733788;82;21202;-77
2021/08/22 04:34:53;;;;;;;21.40;17.20;;;;;;;14.81;79.97;100726.24;1765567;81;20986;-77
2021/08/22 04:37:19;;;;;;;19.77;15.68;;;;;;;15.34;79.85;100726.28;1765815;81;21202;-77
2021/08/22 04:39:45;;;;;;;19.30;15.13;;;;;;;15.91;79.70;100719.95;1733738;82;21065;-77
2021/08/22 04:42:11;;;;;;;19.20;14.80;;;;;;;16.43;79.49;100718.90;1765978;81;21065;-77
2021/08/22 04:44:38;;;;;;;16.25;14.23;;;;;;;16.66;78.89;100721.83;1733812;82;21119;-77
2021/08/22 04:47:05;;;;;;;17.90;15.00;;;;;;;16.93;78.79;100720.88;1765512;81;20993;-77
2021/08/22 04:49:32;;;;;;;17.52;14.35;;;;;;;17.55;78.87;100719.73;1765779;81;21512;-77
2021/08/22 04:51:58;;;;;;;17.35;13.98;;;;;;;18.19;78.58;100719.91;1765588;81;21058;-77
2021/08/22 04:54:25;;;;;;;18.75;11.73;;;;;;;18.74;78.09;100717.97;1733844;82;21027;-78
2021/08/22 04:56:52;;;;;;;14.07;11.95;;;;;;;18.68;77.36;100715.30;1770860;79;21180;-77
2021/08/22 04:59:18;;;;;;;13.30;11.83;;;;;;;18.34;77.04;100712.36;1794979;79;21026;-78
2021/08/22 05:01:44;;;;;;;12.90;11.15;;;;;;;17.91;76.86;100706.65;1779288;79;20969;-78
2021/08/22 05:04:10;;;;;;;13.38;11.15;;;;;;;17.60;76.77;100713.22;1719650;82;21485;-77
2021/08/22 05:06:36;;;;;;;16.80;11.73;;;;;;;17.39;76.72;100715.56;1699151;83;21018;-78
2021/08/22 05:09:02;;;;;;;12.53;10.88;;;;;;;17.23;76.62;100718.16;1698316;84;21124;-78
2021/08/22 05:11:28;;;;;;;13.43;10.58;;;;;;;17.14;76.53;100713.98;1698496;84;21077;-78
2021/08/22 05:13:54;;;;;;;11.83;10.43;;;;;;;17.13;76.39;100719.08;1698390;84;21404;-78
2021/08/22 05:16:20;;;;;;;17.80;11.33;;;;;;;17.05;76.25;100717.91;1698505;84;21007;-77
2021/08/22 05:18:46;;;;;;;13.50;11.15;;;;;;;17.09;76.24;100721.87;1698432;84;21017;-78
2021/08/22 05:21:12;;;;;;;15.08;10.48;;;;;;;17.16;76.16;100724.06;1698578;84;21143;-78
2021/08/22 05:23:38;;;;;;;14.20;10.55;;;;;;;17.23;76.03;100720.86;1698667;84;21512;-78
2021/08/22 05:26:04;;;;;;;18.65;11.33;;;;;;;17.28;75.92;100717.01;1698275;84;21047;-78
2021/08/22 05:28:30;;;;;;;14.35;11.60;;;;;;;17.29;75.84;100713.28;1698456;83;21025;-78
2021/08/22 05:30:56;;;;;;;15.28;11.57;;;;;;;17.32;75.76;100712.87;1697943;84;20990;-78
2021/08/22 05:33:22;;;;;;;14.35;10.48;;;;;;;17.39;75.71;100708.31;1698445;84;20987;-77
2021/08/22 05:35:48;;;;;;;12.25;10.13;;;;;;;17.39;75.61;100706.13;1698398;84;20998;-78
2021/08/22 05:38:14;;;;;;;12.23;10.03;;;;;;;17.32;75.52;100704.78;1698472;84;21021;-77
2021/08/22 05:40:40;;;;;;;11.33;9.63;;;;;;;17.28;75.48;100700.84;1698638;84;20976;-78
2021/08/22 05:43:06;;;;;;;13.72;10.43;;;;;;;17.23;75.34;100703.33;1698705;84;20911;-77
2021/08/22 05:45:32;;;;;;;11.90;9.90;;;;;;;17.20;75.28;100703.75;1698779;84;21181;-78
2021/08/22 05:47:58;;;;;;;18.05;10.08;;;;;;;17.18;75.19;100702.27;1698562;84;21849;-77
2021/08/22 05:50:24;;;;;;;12.55;10.68;;;;;;;17.16;75.13;100703.01;1698744;84;21046;-77
2021/08/22 05:52:50;;;;;;;12.58;10.13;;;;;;;17.18;75.08;100705.80;1698416;84;21316;-77
2021/08/22 05:55:16;;;;;;;11.65;10.20;;;;;;;17.17;75.04;100700.64;1698749;84;20899;-78
2021/08/22 05:57:43;;;;;;;12.78;10.28;;;;;;;17.18;74.99;100703.11;1698543;84;21138;-77
2021/08/22 06:00:10;;;;;;;16.48;10.38;;;;;;;17.23;74.95;100696.59;1698606;84;21514;-77
2021/08/22 06:02:36;;;;;;;12.28;9.75;;;;;;;17.29;74.88;100701.16;1739154;81;21101;-78
2021/08/22 06:05:05;;;;;;;12.82;10.38;;;;;;;17.32;74.80;100700.73;1754032;81;21042;-77
2021/08/22 06:07:31;;;;;;;14.87;10.23;;;;;;;17.37;74.75;100705.01;1753736;81;21061;-77
2021/08/22 06:09:57;;;;;;;11.80;10.35;;;;;;;17.37;74.65;100705.01;1754098;81;21476;-78
2021/08/22 06:12:23;;;;;;;11.55;10.18;;;;;;;17.38;74.58;100695.06;1754009;81;20978;-77
2021/08/22 06:14:49;;;;;;;12.90;10.65;;;;;;;17.41;74.54;100692.77;1753974;81;21544;-77
2021/08/22 06:17:15;;;;;;;14.03;11.08;;;;;;;17.52;74.57;100693.19;1754080;81;21050;-78
2021/08/22 06:19:41;;;;;;;12.78;10.82;;;;;;;17.62;74.51;100690.41;1754068;81;21062;-78
2021/08/22 06:22:07;;;;;;;21.62;14.87;;;;;;;17.72;74.43;100696.73;1753842;81;21102;-78
2021/08/22 06:24:33;;;;;;;14.30;11.80;;;;;;;17.79;74.40;100697.03;1754152;81;20951;-78
2021/08/22 06:27:00;;;;;;;16.37;12.23;;;;;;;17.81;74.26;100692.25;1753861;81;21460;-77
2021/08/22 06:29:26;;;;;;;16.25;12.07;;;;;;;17.91;74.23;100690.45;1753644;80;21014;-78
2021/08/22 06:31:53;;;;;;;13.70;11.35;;;;;;;18.32;74.18;100695.56;1753393;81;21017;-78
2021/08/22 06:34:19;;;;;;;10.90;9.58;;;;;;;18.73;74.04;100695.20;1754177;81;20876;-78
2021/08/22 06:36:46;;;;;;;12.40;10.15;;;;;;;18.91;73.76;100694.80;1753856;81;20979;-78
2021/08/22 06:39:12;;;;;;;14.40;9.55;;;;;;;18.89;73.58;100691.45;1753924;81;20990;-78
2021/08/22 06:41:38;;;;;;;11.75;9.68;;;;;;;18.87;73.37;100686.80;1754129;81;21475;-78
2021/08/22 06:44:05;;;;;;;13.30;8.70;;;;;;;18.99;73.25;100688.30;1753833;81;21046;-78
2021/08/22 06:46:31;;;;;;;10.58;9.10;;;;;;;19.18;73.06;100685.97;1753938;81;21105;-77
2021/08/22 06:48:57;;;;;;;11.18;8.95;;;;;;;19.27;72.79;100691.95;1753513;81;20990;-78
2021/08/22 06:51:23;;;;;;;10.93;8.93;;;;;;;19.44;72.64;100687.17;1753990;81;20999;-78
2021/08/22 06:53:50;;;;;;;13.75;9.20;;;;;;;19.71;72.36;100682.86;1753847;81;21003;-78
2021/08/22 06:56:16;;;;;;;11.68;8.93;;;;;;;20.10;72.16;100685.17;1753986;81;21476;-78
2021/08/22 06:58:42;;;;;;;11.85;9.10;;;;;;;20.29;71.77;100684.69;1753961;81;21145;-78
2021/08/22 07:01:09;;;;;;;9.90;8.45;;;;;;;20.46;71.58;100676.77;1753370;81;21021;-77
2021/08/22 07:03:35;;;;;;;10.00;8.88;;;;;;;20.64;71.23;100684.87;1753624;81;21018;-78
2021/08/22 07:06:01;;;;;;;11.22;8.55;;;;;;;20.89;70.98;100674.73;1753811;81;21045;-78
2021/08/22 07:08:27;;;;;;;11.63;7.90;;;;;;;21.03;70.58;100676.72;1753605;81;21085;-78
2021/08/22 07:10:53;;;;;;;8.60;7.72;;;;;;;20.86;70.32;100681.42;1753821;81;21455;-78
2021/08/22 07:13:19;;;;;;;9.60;8.03;;;;;;;20.88;70.10;100679.33;1758417;80;21000;-78
2021/08/22 07:15:45;;;;;;;11.68;8.35;;;;;;;20.85;69.82;100684.38;1759773;80;21471;-78
2021/08/22 07:18:11;;;;;;;10.10;7.97;;;;;;;21.01;69.59;100682.36;1753380;81;21018;-78
2021/08/22 07:20:37;;;;;;;9.15;8.05;;;;;;;21.31;69.30;100679.12;1755403;81;20938;-78
2021/08/22 07:23:03;;;;;;;10.08;8.40;;;;;;;21.69;69.02;100684.13;1758166;81;21531;-78
2021/08/22 07:25:29;;;;;;;11.40;7.75;;;;;;;22.02;68.52;100672.70;1736686;82;21039;-78
2021/08/22 07:27:55;;;;;;;10.15;8.15;;;;;;;22.08;68.21;100675.80;1736847;81;21157;-78
2021/08/22 07:30:22;;;;;;;9.35;7.15;;;;;;;22.41;67.92;100681.39;1736494;82;21019;-78
2021/08/22 07:32:48;;;;;;;8.68;7.15;;;;;;;22.61;67.47;100682.89;1762342;81;21077;-78
2021/08/22 07:35:14;;;;;;;9.28;8.08;;;;;;;22.61;66.93;100682.89;1764429;81;21863;-78
2021/08/22 07:37:40;;;;;;;7.92;7.12;;;;;;;22.88;66.60;100687.53;1764402;81;20978;-78
2021/08/22 07:40:07;;;;;;;8.88;7.20;;;;;;;23.04;66.11;100685.93;1764227;81;20990;-78
2021/08/22 07:42:34;;;;;;;10.80;7.53;;;;;;;23.16;65.73;100684.48;1763101;81;21503;-78
2021/08/22 07:44:59;;;;;;;9.23;7.08;;;;;;;23.43;65.31;100683.36;1760032;81;21006;-78
2021/08/22 07:47:26;;;;;;;9.00;6.72;;;;;;;23.38;64.81;100690.34;1760113;81;21806;-78
2021/08/22 07:49:52;;;;;;;8.33;6.58;;;;;;;23.28;64.45;100684.72;1782688;80;21048;-78
2021/08/22 07:52:20;;;;;;;9.15;6.37;;;;;;;23.22;64.05;100691.13;1760650;81;20989;-78
2021/08/22 07:54:46;;;;;;;8.33;6.53;;;;;;;23.25;63.78;100698.83;1760881;81;21401;-78
2021/08/22 07:57:12;;;;;;;9.35;6.60;;;;;;;23.45;63.35;100688.02;1773146;80;20905;-78
2021/08/22 07:59:38;;;;;;;9.03;6.20;;;;;;;23.55;62.99;100693.62;1794123;80;22491;-78
2021/08/22 08:02:04;;;;;;;7.12;6.10;;;;;;;23.74;62.71;100691.77;1765506;80;20998;-78
2021/08/22 08:04:30;;;;;;;9.85;6.50;;;;;;;23.81;62.40;100701.13;1780981;80;20986;-79
2021/08/22 08:06:56;;;;;;;9.33;6.22;;;;;;;23.94;62.09;100696.69;1770838;80;21017;-78
2021/08/22 08:09:22;;;;;;;7.85;6.65;;;;;;;23.97;61.66;100693.45;1746238;80;21522;-78
2021/08/22 08:11:48;;;;;;;8.70;6.40;;;;;;;23.97;61.49;100701.63;1759466;80;22799;-79
2021/08/22 08:14:14;;;;;;;10.30;6.30;;;;;;;24.08;61.13;100708.05;1759577;81;21686;-79
2021/08/22 08:16:40;;;;;;;7.40;5.90;;;;;;;24.17;60.88;100712.05;1768895;80;21058;-78
2021/08/22 08:19:06;;;;;;;7.08;5.90;;;;;;;24.11;60.51;100708.37;1792007;80;20994;-78
2021/08/22 08:21:32;;;;;;;8.75;6.67;;;;;;;23.92;60.33;100703.47;1768562;80;20911;-78
2021/08/22 08:23:58;;;;;;;8.23;6.87;;;;;;;23.84;60.23;100710.98;1760795;81;21818;-78
2021/08/22 08:26:24;;;;;;;7.80;6.25;;;;;;;23.92;60.15;100700.74;1751264;80;20899;-79
2021/08/22 08:28:50;;;;;;;9.28;7.03;;;;;;;23.85;59.92;100698.20;1780706;78;21495;-78
2021/08/22 08:31:17;;;;;;;8.73;7.45;;;;;;;23.76;59.80;100690.14;1760420;81;20906;-79
2021/08/22 08:33:43;;;;;;;8.28;7.42;;;;;;;23.74;59.69;100695.02;1758440;81;21104;-78
2021/08/22 08:36:09;;;;;;;9.08;7.15;;;;;;;24.01;59.63;100689.16;1759548;81;21964;-78
2021/08/22 08:38:35;;;;;;;11.00;6.87;;;;;;;24.26;59.41;100693.63;1760563;81;20887;-78
2021/08/22 08:41:04;;;;;;;9.55;6.08;;;;;;;24.34;59.11;100697.29;1760700;81;21434;-78
2021/08/22 08:43:30;;;;;;;;;;;;;;;24.34;58.87;100691.00;1762570;80;21100;-77
2021/08/22 08:46:09;;;;;;;8.93;6.30;;;;;;;24.37;58.70;100685.05;1752946;81;20232;-78
2021/08/22 08:49:06;;;;;;;10.65;6.42;;;;;;;24.29;58.53;100689.03;1755545;81;21833;-79
2021/08/22 08:51:56;;;;;;;10.25;5.95;;;;;;;24.16;58.26;100683.12;1760627;81;21022;-79
2021/08/22 08:54:39;;;;;;;;;;;;;;;23.97;58.14;100681.19;1763842;80;21029;-78
2021/08/22 08:57:08;;;;;;;8.33;7.20;;;;;;;24.02;58.06;100681.28;1758882;81;20552;-79
2021/08/22 08:59:39;;;;;;;9.93;6.47;;;;;;;24.13;57.86;100679.02;1759071;80;22200;-79
2021/08/22 09:02:05;;;;;;;8.78;5.75;;;;;;;24.16;57.77;100677.67;1760112;81;22506;-79
2021/08/22 09:04:42;;;;;;;7.62;5.80;;;;;;;24.18;57.60;100680.42;1766434;79;21537;-79
2021/08/22 09:07:46;;;;;;;8.65;5.15;;;;;;;24.19;57.44;100678.00;1763016;80;21450;-79
2021/08/22 09:11:08;;;;;;;6.42;5.75;;;;;;;23.96;57.25;100678.73;1763005;80;21026;-78
2021/08/22 09:14:14;;;;;;;7.95;6.83;;;;;;;23.79;57.32;100684.19;1740623;80;21030;-79
2021/08/22 09:17:38;;;;;;;8.05;7.03;;;;;;;23.62;57.30;100682.85;1666486;83;21928;-78
2021/08/22 09:20:49;;;;;;;9.15;6.62;;;;;;;23.50;57.40;100681.30;1732964;82;21460;-79
2021/08/22 09:23:55;;;;;;;12.30;6.65;;;;;;;23.38;57.45;100679.98;1760450;80;21068;-79
2021/08/22 09:26:46;;;;;;;10.48;7.10;;;;;;;23.47;57.60;100673.63;1767230;79;21025;-80
2021/08/22 09:30:08;;;;;;;12.23;7.00;;;;;;;23.76;57.57;100668.34;1727469;82;21054;-80
2021/08/22 09:33:30;;;;;;;7.05;5.95;;;;;;;24.06;57.51;100664.72;1734940;82;21714;-80
2021/08/22 09:36:26;;;;;;;7.45;6.42;;;;;;;24.26;57.12;100662.28;1734672;82;21499;-80
2021/08/22 09:39:38;;;;;;;11.55;6.87;;;;;;;24.21;56.95;100664.92;1717316;82;20966;-80
2021/08/22 09:43:00;;;;;;;7.80;6.55;;;;;;;24.46;56.85;100666.31;1757051;81;21383;-76
2021/08/22 09:46:22;;;;;;;7.47;5.92;;;;;;;24.63;56.62;100658.91;1746606;80;20979;-76
2021/08/22 09:49:43;;;;;;;9.70;6.87;;;;;;;24.61;56.32;100658.32;1757876;80;21761;-76
2021/08/22 09:53:03;;;;;;;9.38;6.50;;;;;;;24.73;56.18;100654.92;1728234;82;21042;-76
2021/08/22 09:56:25;;;;;;;7.10;6.37;;;;;;;24.85;55.98;100656.98;1742178;81;21002;-76
2021/08/22 09:59:37;;;;;;;7.87;5.75;;;;;;;24.88;55.78;100658.36;1742270;81;21057;-75
2021/08/22 10:02:30;;;;;;;6.17;5.58;;;;;;;24.91;55.67;100658.66;1758538;80;21432;-76
2021/08/22 10:05:07;;;;;;;8.23;6.50;;;;;;;24.93;55.37;100649.70;1757021;80;21866;-76
2021/08/22 10:08:15;;;;;;;7.58;6.78;;;;;;;24.87;55.23;100646.64;1698537;81;21364;-76
2021/08/22 10:11:05;;;;;;;7.83;6.58;;;;;;;24.86;55.13;100644.98;1752269;81;21372;-76
2021/08/22 10:13:31;;;;;;;7.55;6.15;;;;;;;24.92;54.97;100643.95;1751946;81;21066;-76
2021/08/22 10:15:57;;;;;;;6.33;5.65;;;;;;;24.93;54.73;100639.31;1763668;80;21026;-77
2021/08/22 10:18:24;;;;;;;7.37;6.45;;;;;;;25.00;54.63;100626.28;1778580;80;21893;-77
2021/08/22 10:20:53;;;;;;;7.30;6.05;;;;;;;25.01;54.57;100630.67;1772088;80;21420;-76
2021/08/22 10:23:43;;;;;;;8.60;5.80;;;;;;;25.02;54.36;100627.66;1736991;81;21049;-77
2021/08/22 10:26:10;;;;;;;7.67;6.15;;;;;;;24.91;54.04;100630.58;1734821;81;21050;-77
2021/08/22 10:29:00;;;;;;;9.58;5.92;;;;;;;24.83;53.99;100630.50;1768037;80;21045;-77
2021/08/22 10:31:56;;;;;;;6.30;5.40;;;;;;;24.76;53.97;100628.48;1760312;81;21852;-76
2021/08/22 10:34:25;;;;;;;7.62;5.45;;;;;;;24.79;53.85;100638.88;1759219;80;21009;-77
2021/08/22 10:36:51;;;;;;;6.00;5.12;;;;;;;24.79;53.73;100633.42;1733956;81;20993;-77
2021/08/22 10:39:26;;;;;;;9.00;6.08;;;;;;;24.82;53.64;100631.54;1738199;81;20995;-79
2021/08/22 10:41:53;;;;;;;7.17;6.03;;;;;;;24.91;53.56;100635.47;1741162;81;21012;-79
2021/08/22 10:44:37;;;;;;;7.10;5.78;;;;;;;24.95;53.50;100632.52;1753413;81;21984;-79
2021/08/22 10:47:09;;;;;;;7.45;5.25;;;;;;;24.94;53.39;100629.52;1750788;81;20998;-79
2021/08/22 10:49:56;;;;;;;6.17;5.58;;;;;;;24.96;53.34;100626.52;1756082;81;20970;-79
2021/08/22 10:52:27;;;;;;;7.50;5.60;;;;;;;25.04;53.29;100630.98;1728995;83;21012;-79
2021/08/22 10:55:14;;;;;;;6.12;5.20;;;;;;;25.16;53.16;100629.42;1760799;81;20962;-79
2021/08/22 10:57:49;;;;;;;10.75;5.33;;;;;;;25.37;53.05;100627.13;1753165;81;21765;-79
2021/08/22 11:00:36;;;;;;;7.67;5.10;;;;;;;25.37;52.85;100627.70;1733881;82;20939;-79
2021/08/22 11:03:04;;;;;;;6.50;5.80;;;;;;;25.29;52.65;100620.28;1760209;81;21371;-79
2021/08/22 11:05:35;;;;;;;8.25;5.22;;;;;;;25.24;52.38;100620.22;1760499;81;21457;-79
2021/08/22 11:08:18;;;;;;;7.58;4.92;;;;;;;25.29;52.28;100616.18;1753177;81;20994;-79
2021/08/22 11:11:01;;;;;;;6.35;5.03;;;;;;;25.34;52.24;100620.30;1733996;82;21756;-79
2021/08/22 11:13:41;;;;;;;5.62;5.05;;;;;;;25.45;52.19;100617.64;1760755;81;20970;-79
2021/08/22 11:16:07;;;;;;;10.38;4.92;;;;;;;25.37;51.92;100616.20;1727185;83;20986;-79
2021/08/22 11:18:33;;;;;;;7.22;5.28;;;;;;;25.20;51.83;100616.36;1760775;81;21466;-79
2021/08/22 11:20:59;;;;;;;9.18;5.33;;;;;;;25.20;51.81;100613.63;1753094;81;21017;-79
2021/08/22 11:23:26;;;;;;;6.33;5.40;;;;;;;25.12;51.69;100619.56;1706824;82;21916;-79
2021/08/22 11:26:09;;;;;;;5.60;4.70;;;;;;;25.11;51.63;100615.20;1760578;81;20958;-79
2021/08/22 11:28:36;;;;;;;6.25;4.53;;;;;;;25.05;51.42;100612.12;1760017;81;20970;-79
2021/08/22 11:31:10;;;;;;;6.25;5.10;;;;;;;25.12;51.37;100612.73;1753314;81;20995;-79
2021/08/22 11:33:37;;;;;;;8.58;5.28;;;;;;;25.16;51.19;100616.59;1733576;82;20999;-79
2021/08/22 11:36:03;;;;;;;7.35;5.22;;;;;;;25.14;51.09;100611.95;1760669;81;21806;-79